Time;durP1;ratioP1;P1;durP2;ratioP2;P2;SDS_P1;SDS_P2;PMS_P1;PMS_P2;Temp;Humidity;BMP_temperature;BMP_pressure;BME280_temperature;BME280_humidity;BME280_pressure;Samples;Min_cycle;Max_cycle;Signal;HPM_P1;HPM_P2
2021/03/28 00:02:29;;;;;;;41.40;20.07;;;22.90;95.60;;;;;;5115800;28;20443;-51
2021/03/28 00:05:02;;;;;;;31.50;18.93;;;22.90;95.60;;;;;;5098386;28;20457;-51
2021/03/28 00:07:43;;;;;;;30.67;16.80;;;22.90;95.60;;;;;;5094387;28;20568;-51
2021/03/28 00:10:26;;;;;;;33.50;18.50;;;22.90;95.50;;;;;;5093361;28;20490;-51
2021/03/28 00:13:02;;;;;;;33.97;19.33;;;22.90;95.50;;;;;;5074999;28;20454;-50
2021/03/28 00:15:33;;;;;;;34.57;17.63;;;22.90;95.50;;;;;;5091413;28;20839;-52
2021/03/28 00:18:16;;;;;;;36.07;18.40;;;22.90;95.50;;;;;;5091067;28;20454;-51
2021/03/28 00:20:45;;;;;;;33.63;17.67;;;22.90;95.50;;;;;;5091100;28;20548;-51
2021/03/28 00:23:21;;;;;;;33.90;19.23;;;22.90;95.50;;;;;;5091309;28;20799;-51
2021/03/28 00:25:55;;;;;;;28.80;17.37;;;22.90;95.50;;;;;;5092087;28;20545;-51
2021/03/28 00:28:39;;;;;;;33.43;16.03;;;22.90;95.50;;;;;;5092658;28;20665;-51
2021/03/28 00:31:17;;;;;;;29.87;16.10;;;22.90;95.50;;;;;;5074380;28;20856;-50
2021/03/28 00:33:56;;;;;;;24.73;17.50;;;22.90;95.50;;;;;;5092785;28;20448;-52
2021/03/28 00:36:32;;;;;;;29.73;17.80;;;22.90;95.50;;;;;;5094833;28;20549;-54
2021/03/28 00:39:01;;;;;;;31.30;18.00;;;22.90;95.50;;;;;;5095893;28;20493;-52
2021/03/28 00:41:40;;;;;;;32.70;16.40;;;22.90;95.40;;;;;;5076300;28;20793;-52
2021/03/28 00:44:13;;;;;;;28.17;16.50;;;22.90;95.40;;;;;;5095328;28;21020;-51
2021/03/28 00:46:52;;;;;;;32.43;15.77;;;22.90;95.40;;;;;;5095724;28;20449;-53
2021/03/28 00:49:26;;;;;;;34.97;16.80;;;22.90;95.40;;;;;;5094658;28;20713;-52
2021/03/28 00:51:56;;;;;;;32.00;16.57;;;22.90;95.40;;;;;;5096016;28;20462;-51
2021/03/28 00:54:36;;;;;;;30.13;16.67;;;22.90;95.40;;;;;;5095720;28;20516;-51
2021/03/28 00:57:14;;;;;;;38.73;18.20;;;22.90;95.40;;;;;;5093960;28;20554;-52
2021/03/28 00:59:55;;;;;;;27.93;16.83;;;22.90;95.30;;;;;;5076747;28;20743;-51
2021/03/28 01:02:53;;;;;;;28.10;16.30;;;22.90;95.30;;;;;;5077888;28;20452;-51
2021/03/28 01:05:45;;;;;;;31.27;17.07;;;22.90;95.30;;;;;;5094884;28;20457;-51
2021/03/28 01:08:21;;;;;;;31.77;17.03;;;22.90;95.30;;;;;;5075099;28;20808;-51
2021/03/28 01:11:05;;;;;;;28.10;16.10;;;22.90;95.20;;;;;;5093734;28;20489;-51
2021/03/28 01:14:05;;;;;;;24.20;16.07;;;22.90;95.20;;;;;;5093905;28;20461;-51
2021/03/28 01:17:19;;;;;;;28.67;14.93;;;22.90;95.20;;;;;;5094859;28;20452;-51
2021/03/28 01:20:37;;;;;;;29.30;15.67;;;22.90;95.20;;;;;;5093920;28;20519;-52
2021/03/28 01:23:10;;;;;;;27.80;15.80;;;22.90;95.20;;;;;;5088010;28;20750;-50
2021/03/28 01:25:56;;;;;;;29.40;14.10;;;22.90;95.20;;;;;;5095225;28;20497;-52
2021/03/28 01:28:28;;;;;;;23.10;13.60;;;22.90;95.20;;;;;;5094731;28;20482;-51
2021/03/28 01:30:59;;;;;;;24.90;15.73;;;22.90;95.20;;;;;;5092835;28;20576;-50
2021/03/28 01:33:31;;;;;;;27.33;15.23;;;22.90;95.20;;;;;;5093931;28;20457;-52
2021/03/28 01:36:05;;;;;;;24.07;15.83;;;22.90;95.10;;;;;;5094183;28;20453;-51
2021/03/28 01:38:38;;;;;;;24.10;14.93;;;22.90;95.10;;;;;;5093814;28;20460;-52
2021/03/28 01:41:10;;;;;;;28.23;15.47;;;22.90;95.10;;;;;;5093943;28;20445;-51
2021/03/28 01:43:47;;;;;;;26.93;13.83;;;22.90;95.00;;;;;;5094274;28;20461;-51
2021/03/28 01:46:27;;;;;;;24.80;14.17;;;22.90;95.10;;;;;;5094371;28;20476;-50
2021/03/28 01:48:55;;;;;;;27.80;15.27;;;22.90;95.00;;;;;;5093696;28;20448;-51
2021/03/28 01:52:02;;;;;;;23.77;14.60;;;22.90;95.00;;;;;;5094109;28;20538;-51
2021/03/28 01:54:39;;;;;;;27.37;15.30;;;22.90;95.00;;;;;;5092518;28;20896;-51
2021/03/28 01:57:14;;;;;;;26.40;15.20;;;22.90;95.00;;;;;;5094345;28;20747;-51
2021/03/28 02:00:07;;;;;;;26.43;15.50;;;22.90;95.00;;;;;;5093717;28;20498;-51
2021/03/28 02:02:51;;;;;;;24.87;14.07;;;22.90;95.00;;;;;;5093799;28;20552;-50
2021/03/28 02:05:30;;;;;;;24.10;14.23;;;22.90;94.90;;;;;;5095205;28;20456;-51
2021/03/28 02:08:10;;;;;;;32.00;22.20;;;22.90;94.90;;;;;;5094842;28;20459;-51
2021/03/28 02:10:59;;;;;;;25.40;20.77;;;22.90;94.90;;;;;;5094627;28;20480;-52
2021/03/28 02:13:38;;;;;;;24.73;21.20;;;22.90;94.90;;;;;;5093495;28;20938;-51
2021/03/28 02:16:15;;;;;;;26.67;20.13;;;22.90;94.90;;;;;;5093592;28;20522;-55
2021/03/28 02:18:57;;;;;;;31.13;21.83;;;22.90;94.80;;;;;;5075492;28;20440;-51
2021/03/28 02:21:33;;;;;;;22.80;19.97;;;22.90;94.80;;;;;;5091734;28;20928;-52
2021/03/28 02:24:12;;;;;;;25.33;20.53;;;22.90;94.80;;;;;;5093246;28;20516;-52
2021/03/28 02:26:44;;;;;;;28.50;20.60;;;23.00;94.80;;;;;;5077041;28;20455;-50
2021/03/28 02:29:20;;;;;;;24.80;20.37;;;22.90;94.70;;;;;;5094213;28;20458;-51
2021/03/28 02:32:15;;;;;;;26.30;19.57;;;23.00;94.80;;;;;;5093607;28;20491;-51
2021/03/28 02:34:55;;;;;;;26.97;20.27;;;23.00;94.80;;;;;;5092668;28;20548;-51
2021/03/28 02:37:37;;;;;;;27.23;20.90;;;23.00;94.70;;;;;;5093709;28;20938;-51
2021/03/28 02:40:12;;;;;;;25.50;19.63;;;23.00;94.70;;;;;;5093930;28;20557;-51
2021/03/28 02:42:55;;;;;;;26.13;20.47;;;23.00;94.70;;;;;;5093224;28;21162;-50
2021/03/28 02:45:25;;;;;;;21.60;19.13;;;23.00;94.70;;;;;;5094084;28;20457;-53
2021/03/28 02:48:26;;;;;;;22.77;19.40;;;22.90;94.60;;;;;;5091520;28;20502;-52
2021/03/28 02:51:25;;;;;;;26.80;19.87;;;23.00;94.70;;;;;;5092075;28;20473;-50
2021/03/28 02:54:27;;;;;;;26.60;20.83;;;23.00;94.60;;;;;;5093289;28;20473;-51
2021/03/28 02:57:04;;;;;;;26.07;19.90;;;23.00;94.60;;;;;;5090884;28;20468;-51
2021/03/28 02:59:49;;;;;;;24.43;18.87;;;23.00;94.50;;;;;;5113731;28;20465;-52
2021/03/28 03:02:36;;;;;;;28.60;20.40;;;23.00;94.60;;;;;;5097938;28;20472;-52
2021/03/28 03:05:29;;;;;;;25.63;20.70;;;23.00;94.50;;;;;;5096252;28;20448;-52
2021/03/28 03:08:03;;;;;;;25.77;19.87;;;23.00;94.50;;;;;;5090488;28;20520;-51
2021/03/28 03:11:03;;;;;;;31.60;20.33;;;23.00;94.50;;;;;;5117604;28;20471;-51
2021/03/28 03:14:10;;;;;;;28.80;20.70;;;23.00;94.50;;;;;;5117685;28;20461;-51
2021/03/28 03:17:06;;;;;;;23.30;20.37;;;22.90;94.50;;;;;;5116525;28;20447;-51
2021/03/28 03:20:04;;;;;;;22.17;18.63;;;23.00;94.50;;;;;;5115265;28;20771;-51
2021/03/28 03:23:09;;;;;;;20.50;18.43;;;23.00;94.50;;;;;;5084161;28;20515;-51
2021/03/28 03:26:08;;;;;;;21.87;18.63;;;23.00;94.40;;;;;;5115289;28;20455;-53
2021/03/28 03:29:08;;;;;;;24.73;18.83;;;23.00;94.40;;;;;;5116859;28;20459;-53
2021/03/28 03:31:52;;;;;;;23.20;18.27;;;23.00;94.40;;;;;;5081040;28;20992;-51
2021/03/28 03:34:47;;;;;;;21.10;18.80;;;23.00;94.30;;;;;;5096997;28;20514;-52
2021/03/28 03:37:52;;;;;;;21.97;18.60;;;23.00;94.30;;;;;;5097265;28;20465;-52
2021/03/28 03:40:34;;;;;;;22.47;18.23;;;23.00;94.30;;;;;;5097144;28;20457;-52
2021/03/28 03:43:32;;;;;;;22.03;17.97;;;23.00;94.30;;;;;;5078205;28;20457;-52
2021/03/28 03:46:05;;;;;;;19.83;17.73;;;23.00;94.20;;;;;;5109904;28;20452;-52
2021/03/28 03:49:04;;;;;;;19.20;17.30;;;23.00;94.20;;;;;;5116104;28;21087;-52
2021/03/28 03:52:02;;;;;;;22.17;19.73;;;23.00;94.20;;;;;;5108991;28;20491;-50
2021/03/28 03:54:38;;;;;;;20.70;18.50;;;23.10;94.20;;;;;;5109000;28;20543;-52
2021/03/28 03:57:13;;;;;;;21.13;19.13;;;23.10;94.10;;;;;;5116027;28;20460;-52
2021/03/28 03:59:51;;;;;;;20.37;18.37;;;23.10;94.10;;;;;;5115597;28;20459;-51
2021/03/28 04:02:24;;;;;;;19.57;17.67;;;23.10;94.10;;;;;;5116785;28;20738;-51
2021/03/28 04:05:06;;;;;;;22.53;18.27;;;23.10;94.00;;;;;;5115111;28;20522;-52
2021/03/28 04:07:56;;;;;;;20.07;18.10;;;23.10;94.00;;;;;;5093614;28;20452;-52
2021/03/28 04:10:36;;;;;;;21.77;18.13;;;23.10;93.90;;;;;;5077618;28;20480;-52
2021/03/28 04:13:38;;;;;;;20.03;18.13;;;23.20;93.90;;;;;;5094686;28;20453;-50
2021/03/28 04:16:18;;;;;;;21.50;18.63;;;23.20;93.90;;;;;;5095494;28;20457;-51
2021/03/28 04:19:17;;;;;;;19.13;17.30;;;23.20;93.80;;;;;;5093875;28;20456;-51
2021/03/28 04:21:57;;;;;;;18.10;16.23;;;23.20;93.80;;;;;;5076350;28;20876;-53
2021/03/28 04:24:35;;;;;;;19.70;17.63;;;23.20;93.70;;;;;;5095407;28;20454;-51
2021/03/28 04:27:30;;;;;;;20.90;18.70;;;23.20;93.70;;;;;;5094882;28;20926;-52
2021/03/28 04:29:57;;;;;;;21.07;18.90;;;23.20;93.60;;;;;;5094591;28;20944;-51
2021/03/28 04:32:45;;;;;;;19.27;17.53;;;23.20;93.50;;;;;;5092548;28;20485;-50
2021/03/28 04:35:25;;;;;;;18.90;17.13;;;23.30;93.50;;;;;;5116337;28;20450;-51
2021/03/28 04:38:21;;;;;;;19.20;17.40;;;23.30;93.50;;;;;;5116599;28;20830;-51
2021/03/28 04:41:10;;;;;;;19.37;17.60;;;23.30;93.50;;;;;;5114569;28;21124;-51
2021/03/28 04:44:22;;;;;;;19.80;17.77;;;23.30;93.40;;;;;;5101614;28;20453;-53
2021/03/28 04:47:15;;;;;;;18.83;17.03;;;23.30;93.30;;;;;;5048723;28;20492;-51
2021/03/28 04:49:58;;;;;;;20.57;18.13;;;23.40;93.30;;;;;;5039322;28;20764;-51
2021/03/28 04:53:05;;;;;;;18.67;16.80;;;23.40;93.20;;;;;;5093520;28;20442;-51
2021/03/28 04:56:22;;;;;;;19.90;17.70;;;23.40;93.20;;;;;;5114690;28;20449;-51
2021/03/28 04:59:18;;;;;;;22.50;18.47;;;23.40;93.10;;;;;;5114629;28;20476;-52
2021/03/28 05:01:57;;;;;;;19.63;17.70;;;23.40;93.00;;;;;;5113623;28;20488;-53
2021/03/28 05:04:57;;;;;;;20.57;17.70;;;23.50;93.00;;;;;;5114565;28;20456;-51
2021/03/28 05:07:45;;;;;;;19.23;17.50;;;23.50;92.90;;;;;;5113091;28;20460;-51
2021/03/28 05:10:32;;;;;;;19.87;17.93;;;23.50;92.80;;;;;;5114766;28;20474;-51
2021/03/28 05:13:24;;;;;;;19.77;17.47;;;23.50;92.80;;;;;;5115037;28;20449;-51
2021/03/28 05:16:39;;;;;;;18.60;16.63;;;23.50;92.70;;;;;;5115026;28;20461;-52
2021/03/28 05:19:54;;;;;;;18.83;17.13;;;23.50;92.70;;;;;;5085554;28;20461;-51
2021/03/28 05:22:53;;;;;;;17.83;16.20;;;23.60;92.60;;;;;;5113424;28;20454;-52
2021/03/28 05:25:32;;;;;;;19.80;17.87;;;23.60;92.60;;;;;;5114476;28;20454;-51
2021/03/28 05:28:28;;;;;;;22.93;17.60;;;23.60;92.50;;;;;;5113976;28;20999;-51
2021/03/28 05:31:30;;;;;;;19.40;17.60;;;23.60;92.50;;;;;;5113692;28;20496;-51
2021/03/28 05:34:19;;;;;;;20.07;16.80;;;23.60;92.50;;;;;;5114534;28;20479;-52
2021/03/28 05:37:19;;;;;;;18.10;16.50;;;23.60;92.40;;;;;;5112998;28;20489;-52
2021/03/28 05:40:11;;;;;;;18.83;16.83;;;23.60;92.40;;;;;;5114777;28;20542;-55
2021/03/28 05:43:13;;;;;;;19.40;17.40;;;23.60;92.40;;;;;;5112534;28;20468;-52
2021/03/28 05:46:02;;;;;;;19.43;17.70;;;23.60;92.30;;;;;;5111579;28;20456;-52
2021/03/28 05:49:19;;;;;;;18.73;16.93;;;23.60;92.30;;;;;;5114140;28;20465;-51
2021/03/28 05:52:05;;;;;;;18.47;16.70;;;23.60;92.20;;;;;;5073181;28;20493;-53
2021/03/28 05:55:06;;;;;;;17.87;16.27;;;23.70;92.20;;;;;;5112408;28;20461;-51
2021/03/28 05:58:14;;;;;;;17.73;15.83;;;23.70;92.20;;;;;;5111561;28;20457;-51
2021/03/28 06:01:10;;;;;;;18.33;16.70;;;23.70;92.10;;;;;;5112974;28;20461;-53
2021/03/28 06:04:30;;;;;;;18.57;16.67;;;23.70;92.10;;;;;;5111200;28;20453;-51
2021/03/28 06:07:44;;;;;;;18.53;16.73;;;23.70;92.00;;;;;;5112260;28;20458;-51
2021/03/28 06:10:54;;;;;;;17.10;15.63;;;23.70;92.00;;;;;;5097429;28;20488;-52
2021/03/28 06:13:43;;;;;;;19.03;16.73;;;23.70;92.00;;;;;;5112772;28;20446;-51
2021/03/28 06:16:46;;;;;;;17.23;15.73;;;23.80;92.30;;;;;;5113699;28;20753;-52
2021/03/28 06:19:47;;;;;;;18.37;16.83;;;23.80;92.00;;;;;;5113361;28;20538;-51
2021/03/28 06:22:56;;;;;;;18.33;16.53;;;23.80;91.90;;;;;;5112997;28;20484;-51
2021/03/28 06:25:56;;;;;;;17.90;16.07;;;23.80;91.90;;;;;;5113556;28;20552;-52
2021/03/28 06:28:56;;;;;;;18.27;16.67;;;23.80;91.80;;;;;;5112179;28;20778;-52
2021/03/28 06:32:09;;;;;;;19.67;17.13;;;23.80;91.80;;;;;;5093899;28;20486;-54
2021/03/28 06:35:11;;;;;;;17.80;16.00;;;23.80;91.70;;;;;;5108814;28;20473;-52
2021/03/28 06:38:20;;;;;;;18.10;16.70;;;23.80;91.70;;;;;;5112761;28;20802;-54
2021/03/28 06:41:31;;;;;;;16.97;15.33;;;23.80;91.70;;;;;;5111093;28;20501;-51
2021/03/28 06:44:20;;;;;;;18.97;17.00;;;23.80;91.70;;;;;;5033174;28;20464;-52
2021/03/28 06:47:34;;;;;;;15.97;14.40;;;23.80;91.70;;;;;;5108571;28;20462;-54
2021/03/28 06:50:35;;;;;;;18.00;16.30;;;23.80;91.70;;;;;;5114990;28;21140;-51
2021/03/28 06:53:18;;;;;;;16.43;15.20;;;23.80;91.70;;;;;;5116269;28;20450;-52
2021/03/28 06:55:45;;;;;;;18.83;16.97;;;23.80;91.60;;;;;;5117099;28;20448;-53
2021/03/28 06:58:34;;;;;;;17.13;15.17;;;23.80;91.60;;;;;;5113131;28;20911;-55
2021/03/28 07:01:33;;;;;;;17.43;15.90;;;23.90;91.60;;;;;;5115647;28;20530;-53
2021/03/28 07:04:42;;;;;;;17.17;15.67;;;23.90;91.60;;;;;;5097199;28;20449;-51
2021/03/28 07:07:39;;;;;;;17.50;15.70;;;23.90;91.80;;;;;;5115162;28;20539;-51
2021/03/28 07:10:30;;;;;;;16.30;14.80;;;23.90;91.40;;;;;;5093858;28;20455;-52
2021/03/28 07:13:39;;;;;;;17.10;15.50;;;23.90;91.50;;;;;;5114295;28;20623;-51
2021/03/28 07:16:33;;;;;;;17.03;14.80;;;23.90;91.50;;;;;;5108174;28;20588;-52
2021/03/28 07:19:29;;;;;;;17.10;15.30;;;23.90;91.40;;;;;;5110579;28;20487;-51
2021/03/28 07:22:11;;;;;;;19.50;15.27;;;23.90;91.50;;;;;;5109181;28;20448;-51
2021/03/28 07:25:36;;;;;;;16.47;14.87;;;23.80;91.40;;;;;;5111956;28;20717;-52
2021/03/28 07:28:41;;;;;;;16.50;15.00;;;23.90;91.50;;;;;;5111621;28;20521;-52
2021/03/28 07:31:43;;;;;;;16.27;14.77;;;23.80;91.50;;;;;;5110829;28;20554;-52
2021/03/28 07:34:54;;;;;;;17.63;15.87;;;23.90;91.60;;;;;;5110625;28;20543;-51
2021/03/28 07:38:12;;;;;;;19.20;17.10;;;23.90;91.70;;;;;;5112197;28;20492;-54
2021/03/28 07:41:23;;;;;;;17.20;15.20;;;23.80;91.80;;;;;;5112714;28;20449;-52
2021/03/28 07:44:38;;;;;;;16.90;15.20;;;23.80;92.00;;;;;;5112363;28;20471;-53
2021/03/28 07:47:43;;;;;;;16.47;14.93;;;23.80;92.10;;;;;;5074275;28;20449;-53
2021/03/28 07:50:40;;;;;;;14.93;13.53;;;23.80;92.20;;;;;;5111999;28;20947;-52
2021/03/28 07:53:32;;;;;;;23.53;19.87;;;23.80;92.20;;;;;;5111725;28;20518;-54
2021/03/28 07:56:20;;;;;;;25.80;21.40;;;23.80;92.50;;;;;;5110609;28;20449;-52
2021/03/28 07:59:04;;;;;;;25.43;20.50;;;23.80;92.60;;;;;;5101830;28;20470;-53
2021/03/28 08:01:42;;;;;;;23.50;21.43;;;23.80;92.80;;;;;;5090482;28;20449;-54
2021/03/28 08:04:38;;;;;;;23.93;21.23;;;23.80;92.90;;;;;;5090013;28;20883;-52
2021/03/28 08:07:30;;;;;;;24.83;21.73;;;23.80;93.00;;;;;;5088817;28;20463;-54
2021/03/28 08:10:26;;;;;;;24.30;21.80;;;23.80;93.00;;;;;;5090355;28;20764;-55
2021/03/28 08:13:30;;;;;;;24.17;21.90;;;23.80;93.10;;;;;;5090288;28;20846;-53
2021/03/28 08:16:33;;;;;;;25.97;22.30;;;23.80;93.20;;;;;;5092048;28;20968;-53
2021/03/28 08:19:33;;;;;;;24.50;22.07;;;23.70;93.30;;;;;;5078802;28;20901;-55
2021/03/28 08:22:14;;;;;;;24.53;21.90;;;23.70;93.40;;;;;;5091947;28;20443;-53
2021/03/28 08:25:17;;;;;;;29.60;20.77;;;23.70;93.50;;;;;;5091377;28;20455;-56
2021/03/28 08:27:59;;;;;;;22.20;19.93;;;23.70;93.60;;;;;;5090160;28;20468;-56
2021/03/28 08:30:51;;;;;;;24.77;20.13;;;23.70;93.50;;;;;;5092475;28;20773;-53
2021/03/28 08:34:00;;;;;;;23.13;20.30;;;23.60;93.50;;;;;;5091066;28;20457;-52
2021/03/28 08:37:00;;;;;;;22.57;19.23;;;23.60;93.50;;;;;;5089203;28;20456;-52
2021/03/28 08:39:43;;;;;;;21.70;19.60;;;23.60;93.50;;;;;;5081966;28;20896;-53
2021/03/28 08:42:28;;;;;;;23.90;17.83;;;23.60;93.50;;;;;;5091546;28;20892;-53
2021/03/28 08:45:26;;;;;;;21.87;19.60;;;23.60;93.60;;;;;;5088664;28;20507;-52
2021/03/28 08:48:29;;;;;;;26.33;19.60;;;23.60;93.60;;;;;;5089714;28;21001;-52
2021/03/28 08:51:09;;;;;;;21.97;18.80;;;23.60;93.60;;;;;;5096192;28;20532;-53
2021/03/28 08:54:09;;;;;;;27.23;19.43;;;23.60;93.60;;;;;;5108661;28;20871;-52
2021/03/28 08:56:52;;;;;;;22.03;18.57;;;23.60;93.60;;;;;;5107853;28;20758;-54
2021/03/28 08:59:36;;;;;;;20.17;18.07;;;23.60;93.90;;;;;;5108845;28;20563;-54
2021/03/28 09:02:19;;;;;;;23.77;18.43;;;23.60;93.70;;;;;;5107198;28;20515;-54
2021/03/28 09:04:59;;;;;;;21.90;18.73;;;23.50;93.60;;;;;;5108886;28;20544;-56
2021/03/28 09:07:40;;;;;;;20.87;18.57;;;23.50;93.60;;;;;;5111817;28;20831;-54
2021/03/28 09:10:35;;;;;;;22.93;19.80;;;23.50;93.60;;;;;;5111274;28;20777;-53
2021/03/28 09:13:33;;;;;;;20.60;18.40;;;23.50;93.70;;;;;;5109487;28;20781;-56
2021/03/28 09:16:10;;;;;;;22.30;18.10;;;23.50;93.70;;;;;;5109533;28;20872;-53
2021/03/28 09:19:01;;;;;;;24.60;19.43;;;23.50;93.60;;;;;;5078326;28;20549;-55
2021/03/28 09:21:35;;;;;;;19.90;17.93;;;23.50;93.60;;;;;;5088636;28;20447;-53
2021/03/28 09:24:16;;;;;;;19.50;17.63;;;23.50;93.60;;;;;;5091841;28;20494;-52
2021/03/28 09:26:49;;;;;;;20.60;18.50;;;23.50;93.60;;;;;;5086513;28;20547;-53
2021/03/28 09:29:40;;;;;;;22.97;18.83;;;23.50;93.60;;;;;;5088069;28;20530;-53
2021/03/28 09:32:28;;;;;;;21.90;19.60;;;23.40;93.60;;;;;;5083563;28;20894;-53
2021/03/28 09:35:06;;;;;;;20.17;18.13;;;23.40;93.90;;;;;;5085329;28;20442;-56
2021/03/28 09:37:44;;;;;;;25.93;17.90;;;23.40;93.60;;;;;;5088092;28;20453;-54
2021/03/28 09:40:25;;;;;;;20.43;18.40;;;23.40;93.60;;;;;;5087158;28;20457;-53
2021/03/28 09:43:16;;;;;;;21.40;19.10;;;23.40;93.60;;;;;;5090720;28;20455;-56
2021/03/28 09:46:20;;;;;;;19.57;17.70;;;23.40;93.60;;;;;;5087119;28;20487;-52
2021/03/28 09:49:13;;;;;;;20.27;17.83;;;23.40;93.70;;;;;;5091432;28;20493;-54
2021/03/28 09:52:21;;;;;;;18.93;16.70;;;23.40;93.70;;;;;;5087580;28;20539;-55
2021/03/28 09:55:33;;;;;;;24.77;17.97;;;23.30;93.60;;;;;;5087403;28;20964;-54
2021/03/28 09:58:41;;;;;;;17.73;16.20;;;23.40;93.70;;;;;;5086743;28;20786;-54
2021/03/28 10:01:36;;;;;;;20.10;17.67;;;23.30;93.70;;;;;;5085216;28;20536;-52
2021/03/28 10:04:14;;;;;;;21.03;16.77;;;23.30;93.70;;;;;;5083028;28;20869;-52
2021/03/28 10:06:43;;;;;;;20.20;16.77;;;23.30;93.60;;;;;;5087119;28;20540;-54
2021/03/28 10:09:17;;;;;;;17.30;15.67;;;23.30;93.70;;;;;;5086655;28;20453;-52
2021/03/28 10:11:50;;;;;;;18.00;16.10;;;23.30;93.70;;;;;;5085732;28;20992;-52
2021/03/28 10:14:40;;;;;;;18.23;16.20;;;23.30;93.70;;;;;;5087357;28;20826;-54
2021/03/28 10:17:36;;;;;;;23.13;16.93;;;23.30;93.70;;;;;;5087270;28;20802;-53
2021/03/28 10:20:16;;;;;;;17.23;15.17;;;23.40;93.70;;;;;;5088239;28;20454;-52
2021/03/28 10:22:54;;;;;;;17.20;15.50;;;23.30;93.60;;;;;;5089186;28;20487;-52
2021/03/28 10:25:33;;;;;;;17.93;16.13;;;23.30;93.60;;;;;;5088377;28;20445;-55
2021/03/28 10:28:21;;;;;;;17.80;16.10;;;23.30;93.60;;;;;;5087980;28;20750;-54
2021/03/28 10:30:54;;;;;;;19.10;16.93;;;23.30;93.60;;;;;;5085904;28;20915;-52
2021/03/28 10:33:36;;;;;;;19.10;17.23;;;23.40;93.60;;;;;;5085352;28;20450;-52
2021/03/28 10:36:20;;;;;;;18.40;16.47;;;23.30;93.60;;;;;;5088816;28;20529;-56
2021/03/28 10:39:06;;;;;;;18.13;16.30;;;23.30;93.60;;;;;;5087222;28;20495;-52
2021/03/28 10:41:59;;;;;;;17.03;15.43;;;23.30;93.60;;;;;;5087878;28;20466;-53
2021/03/28 10:44:57;;;;;;;17.17;15.40;;;23.30;93.60;;;;;;5089429;28;20613;-54
2021/03/28 10:47:59;;;;;;;20.60;17.00;;;23.30;93.60;;;;;;5090050;28;20937;-53
2021/03/28 10:51:03;;;;;;;19.73;17.73;;;23.30;93.60;;;;;;5086161;28;20449;-54
2021/03/28 10:53:54;;;;;;;17.23;15.53;;;23.30;93.60;;;;;;5078168;28;20884;-53
2021/03/28 10:56:54;;;;;;;16.70;15.00;;;23.30;93.60;;;;;;5083354;28;20592;-52
2021/03/28 10:59:58;;;;;;;16.30;14.90;;;23.30;93.60;;;;;;5084775;28;20545;-55
2021/03/28 11:03:01;;;;;;;17.50;15.80;;;23.30;93.60;;;;;;5086810;28;20459;-54
2021/03/28 11:06:11;;;;;;;17.10;15.53;;;23.30;93.60;;;;;;5088179;28;20763;-53
2021/03/28 11:08:52;;;;;;;18.13;15.43;;;23.30;93.60;;;;;;5042637;28;20502;-53
2021/03/28 11:11:51;;;;;;;18.23;16.30;;;23.20;93.60;;;;;;5086519;28;20923;-53
2021/03/28 11:14:45;;;;;;;16.27;14.33;;;23.20;93.70;;;;;;5083102;28;20445;-52
2021/03/28 11:17:22;;;;;;;15.97;14.63;;;23.20;93.70;;;;;;5082258;28;20689;-52
2021/03/28 11:20:34;;;;;;;18.03;15.60;;;23.20;93.70;;;;;;5086493;28;20472;-53
2021/03/28 11:23:38;;;;;;;16.20;14.63;;;23.20;94.10;;;;;;5084476;28;20470;-53
2021/03/28 11:26:46;;;;;;;16.23;14.67;;;23.20;93.80;;;;;;5087151;28;20453;-54
2021/03/28 11:29:40;;;;;;;16.90;15.30;;;23.10;93.80;;;;;;5090107;28;20538;-52
2021/03/28 11:32:33;;;;;;;16.47;14.80;;;23.10;93.90;;;;;;5068249;28;20496;-55
2021/03/28 11:35:18;;;;;;;15.27;13.87;;;23.10;94.00;;;;;;5088508;28;20472;-54
2021/03/28 11:37:50;;;;;;;15.57;14.07;;;23.10;94.20;;;;;;5076049;28;20456;-54
2021/03/28 11:40:28;;;;;;;17.07;14.17;;;23.10;94.00;;;;;;5091412;28;20446;-58
2021/03/28 11:43:24;;;;;;;15.43;14.03;;;23.10;94.10;;;;;;5090406;28;20449;-57
2021/03/28 11:46:08;;;;;;;17.50;15.83;;;23.00;94.10;;;;;;5071597;28;20868;-58
2021/03/28 11:48:38;;;;;;;16.47;14.97;;;23.10;94.10;;;;;;5091493;28;20462;-56
2021/03/28 11:51:22;;;;;;;15.50;14.10;;;23.00;94.10;;;;;;5105503;28;20474;-56
2021/03/28 11:53:53;;;;;;;14.80;13.57;;;23.10;94.20;;;;;;5089673;28;20449;-57
2021/03/28 11:56:41;;;;;;;16.90;15.17;;;23.10;94.20;;;;;;5090088;28;20496;-58
2021/03/28 11:59:29;;;;;;;15.73;14.23;;;23.10;94.20;;;;;;5089365;28;20519;-54
2021/03/28 12:02:18;;;;;;;17.63;15.40;;;23.10;94.20;;;;;;5090299;28;20494;-57
2021/03/28 12:04:46;;;;;;;17.33;15.70;;;23.10;94.20;;;;;;5072839;28;20473;-55
2021/03/28 12:07:33;;;;;;;16.00;14.60;;;23.10;94.10;;;;;;5088368;28;20474;-54
2021/03/28 12:10:28;;;;;;;16.67;14.87;;;23.10;94.20;;;;;;5086616;28;20480;-56
2021/03/28 12:13:12;;;;;;;18.17;15.03;;;23.10;94.20;;;;;;5086869;28;20776;-57
2021/03/28 12:15:58;;;;;;;13.70;12.60;;;23.10;94.10;;;;;;5086479;28;20635;-54
2021/03/28 12:18:50;;;;;;;16.37;14.87;;;23.10;94.20;;;;;;5088239;28;20445;-57
2021/03/28 12:21:30;;;;;;;15.27;13.80;;;23.00;94.10;;;;;;5088148;28;20499;-57
2021/03/28 12:24:02;;;;;;;15.40;14.03;;;23.10;94.20;;;;;;5087596;28;21067;-58
2021/03/28 12:26:47;;;;;;;15.50;14.20;;;23.00;94.10;;;;;;5085672;28;20901;-57
2021/03/28 12:29:20;;;;;;;13.87;12.53;;;23.10;94.10;;;;;;5085850;28;20527;-57
2021/03/28 12:31:50;;;;;;;15.90;14.40;;;23.00;94.10;;;;;;5088168;28;20756;-57
2021/03/28 12:34:27;;;;;;;14.43;13.10;;;23.00;94.10;;;;;;5087365;28;20589;-54
2021/03/28 12:36:58;;;;;;;15.53;14.13;;;23.00;94.10;;;;;;5089278;28;20916;-56
2021/03/28 12:39:30;;;;;;;16.07;14.67;;;23.00;94.10;;;;;;5090736;28;20590;-57
2021/03/28 12:42:24;;;;;;;15.90;13.63;;;23.00;94.10;;;;;;5088432;28;20506;-57
2021/03/28 12:44:53;;;;;;;14.60;13.20;;;23.00;94.20;;;;;;5100379;28;20448;-58
2021/03/28 12:47:25;;;;;;;15.23;13.87;;;23.00;94.10;;;;;;5108329;28;20460;-58
2021/03/28 12:49:56;;;;;;;16.00;14.63;;;22.90;94.10;;;;;;5106463;28;20475;-56
2021/03/28 12:52:44;;;;;;;15.27;13.93;;;23.00;94.10;;;;;;5105474;28;20562;-57
2021/03/28 12:55:36;;;;;;;14.00;12.80;;;23.00;94.20;;;;;;5103565;28;20644;-57
2021/03/28 12:58:15;;;;;;;14.80;13.40;;;23.00;94.10;;;;;;5087730;28;20703;-57
2021/03/28 13:00:50;;;;;;;16.13;14.63;;;23.00;94.20;;;;;;5086852;28;20481;-54
2021/03/28 13:03:27;;;;;;;15.80;14.30;;;22.90;94.10;;;;;;5087366;28;20750;-55
2021/03/28 13:06:18;;;;;;;14.50;13.10;;;23.00;94.20;;;;;;5069480;28;20463;-58
2021/03/28 13:08:48;;;;;;;13.90;12.80;;;23.00;94.20;;;;;;5087012;28;20477;-58
2021/03/28 13:11:17;;;;;;;16.07;14.67;;;23.00;94.10;;;;;;5088991;28;20500;-59
2021/03/28 13:13:47;;;;;;;15.07;13.77;;;23.00;94.10;;;;;;5089968;28;20815;-59
2021/03/28 13:16:25;;;;;;;15.03;13.90;;;22.90;94.10;;;;;;5085075;28;20454;-58
2021/03/28 13:18:52;;;;;;;14.97;13.80;;;23.00;94.10;;;;;;5086625;28;20457;-59
2021/03/28 13:21:22;;;;;;;14.70;13.43;;;23.00;94.10;;;;;;5088697;28;20937;-59
2021/03/28 13:23:55;;;;;;;14.03;12.80;;;23.00;94.10;;;;;;5086849;28;20530;-58
2021/03/28 13:26:25;;;;;;;14.20;13.00;;;23.00;94.10;;;;;;5088578;28;20453;-58
2021/03/28 13:29:00;;;;;;;14.00;12.70;;;22.90;94.10;;;;;;5088096;28;20518;-59
2021/03/28 13:31:45;;;;;;;14.60;13.40;;;23.00;94.10;;;;;;5086577;28;20496;-60
2021/03/28 13:34:31;;;;;;;14.87;13.67;;;22.90;94.00;;;;;;5089011;28;20528;-58
2021/03/28 13:37:03;;;;;;;14.67;13.37;;;23.00;94.10;;;;;;5085238;28;20449;-58
2021/03/28 13:39:33;;;;;;;14.27;13.07;;;22.90;94.00;;;;;;5098895;28;20758;-59
2021/03/28 13:42:20;;;;;;;14.17;12.90;;;23.00;94.00;;;;;;5107249;28;20727;-58
2021/03/28 13:44:55;;;;;;;14.33;13.23;;;23.00;94.00;;;;;;5091014;28;20830;-57
2021/03/28 13:47:46;;;;;;;15.43;14.03;;;23.00;94.00;;;;;;5107073;28;20865;-59
2021/03/28 13:50:44;;;;;;;14.30;13.10;;;22.90;94.00;;;;;;5107972;28;20798;-59
2021/03/28 13:53:28;;;;;;;14.80;13.33;;;23.00;94.00;;;;;;5107396;28;20453;-57
2021/03/28 13:56:29;;;;;;;14.00;12.90;;;23.00;94.00;;;;;;5106144;28;20864;-58
2021/03/28 13:59:13;;;;;;;16.33;14.70;;;23.00;94.00;;;;;;5108197;28;20922;-59
2021/03/28 14:01:59;;;;;;;13.87;12.67;;;23.00;94.00;;;;;;5092003;28;20726;-58
2021/03/28 14:04:37;;;;;;;13.50;12.50;;;22.90;94.00;;;;;;5070260;28;20623;-58
2021/03/28 14:07:14;;;;;;;13.97;12.93;;;23.00;94.00;;;;;;5084951;28;20517;-57
2021/03/28 14:09:46;;;;;;;16.07;14.80;;;22.90;94.00;;;;;;5085842;28;20764;-60
2021/03/28 14:12:22;;;;;;;15.23;13.93;;;23.00;94.00;;;;;;5083986;28;20583;-60
2021/03/28 14:15:01;;;;;;;13.80;12.80;;;23.00;94.00;;;;;;5085541;28;21046;-58